sensor_id;sensor_type;location;lat;lon;timestamp;P1;durP1;ratioP1;P2;durP2;ratioP2
21046;SDS011;10682;50.874;3.656;2023-07-13T00:00:30;20.10;;;2.90;;
21046;SDS011;10682;50.874;3.656;2023-07-13T00:02:58;13.82;;;3.03;;
21046;SDS011;10682;50.874;3.656;2023-07-13T00:05:25;14.10;;;2.65;;
21046;SDS011;10682;50.874;3.656;2023-07-13T00:07:53;14.93;;;2.65;;
21046;SDS011;10682;50.874;3.656;2023-07-13T00:10:21;18.27;;;3.10;;
21046;SDS011;10682;50.874;3.656;2023-07-13T00:12:48;12.35;;;3.28;;
21046;SDS011;10682;50.874;3.656;2023-07-13T00:15:17;18.48;;;2.90;;
21046;SDS011;10682;50.874;3.656;2023-07-13T00:17:51;13.32;;;2.83;;
21046;SDS011;10682;50.874;3.656;2023-07-13T00:20:23;20.23;;;3.08;;
21046;SDS011;10682;50.874;3.656;2023-07-13T00:22:52;14.25;;;3.40;;
21046;SDS011;10682;50.874;3.656;2023-07-13T00:25:20;22.30;;;4.10;;
21046;SDS011;10682;50.874;3.656;2023-07-13T00:27:50;17.17;;;3.17;;
21046;SDS011;10682;50.874;3.656;2023-07-13T00:30:18;13.38;;;3.00;;
21046;SDS011;10682;50.874;3.656;2023-07-13T00:32:45;15.35;;;2.63;;
21046;SDS011;10682;50.874;3.656;2023-07-13T00:35:13;20.83;;;3.38;;
21046;SDS011;10682;50.874;3.656;2023-07-13T00:37:41;16.30;;;2.92;;
21046;SDS011;10682;50.874;3.656;2023-07-13T00:40:10;15.13;;;3.30;;
21046;SDS011;10682;50.874;3.656;2023-07-13T00:42:40;14.65;;;3.22;;
21046;SDS011;10682;50.874;3.656;2023-07-13T00:47:40;15.18;;;3.45;;
21046;SDS011;10682;50.874;3.656;2023-07-13T00:50:10;19.65;;;3.83;;
21046;SDS011;10682;50.874;3.656;2023-07-13T00:52:43;13.32;;;3.15;;
21046;SDS011;10682;50.874;3.656;2023-07-13T00:55:17;25.48;;;4.18;;
21046;SDS011;10682;50.874;3.656;2023-07-13T00:57:44;14.30;;;3.55;;
21046;SDS011;10682;50.874;3.656;2023-07-13T01:00:12;13.35;;;3.42;;
21046;SDS011;10682;50.874;3.656;2023-07-13T01:02:42;15.98;;;3.20;;
21046;SDS011;10682;50.874;3.656;2023-07-13T01:05:13;24.35;;;3.80;;
21046;SDS011;10682;50.874;3.656;2023-07-13T01:07:48;19.70;;;3.47;;
21046;SDS011;10682;50.874;3.656;2023-07-13T01:10:21;15.65;;;3.80;;
21046;SDS011;10682;50.874;3.656;2023-07-13T01:12:50;16.92;;;3.40;;
21046;SDS011;10682;50.874;3.656;2023-07-13T01:18:16;18.33;;;3.80;;
21046;SDS011;10682;50.874;3.656;2023-07-13T01:20:51;18.83;;;3.95;;
21046;SDS011;10682;50.874;3.656;2023-07-13T01:23:28;24.40;;;3.85;;
21046;SDS011;10682;50.874;3.656;2023-07-13T01:25:57;15.23;;;3.45;;
21046;SDS011;10682;50.874;3.656;2023-07-13T01:28:27;21.88;;;4.07;;
21046;SDS011;10682;50.874;3.656;2023-07-13T01:30:56;23.30;;;4.32;;
21046;SDS011;10682;50.874;3.656;2023-07-13T01:33:27;17.70;;;3.88;;
21046;SDS011;10682;50.874;3.656;2023-07-13T01:35:55;18.02;;;3.50;;
21046;SDS011;10682;50.874;3.656;2023-07-13T01:38:24;16.27;;;4.20;;
21046;SDS011;10682;50.874;3.656;2023-07-13T01:40:52;20.85;;;4.10;;
21046;SDS011;10682;50.874;3.656;2023-07-13T01:43:19;24.02;;;4.70;;
21046;SDS011;10682;50.874;3.656;2023-07-13T01:45:47;19.10;;;4.75;;
21046;SDS011;10682;50.874;3.656;2023-07-13T01:48:15;22.25;;;4.40;;
21046;SDS011;10682;50.874;3.656;2023-07-13T01:50:42;17.55;;;3.67;;
21046;SDS011;10682;50.874;3.656;2023-07-13T01:53:09;16.08;;;4.05;;
21046;SDS011;10682;50.874;3.656;2023-07-13T01:55:38;19.00;;;4.45;;
21046;SDS011;10682;50.874;3.656;2023-07-13T01:58:05;18.05;;;4.00;;
21046;SDS011;10682;50.874;3.656;2023-07-13T02:00:33;23.50;;;4.38;;
21046;SDS011;10682;50.874;3.656;2023-07-13T02:03:00;23.45;;;4.68;;
21046;SDS011;10682;50.874;3.656;2023-07-13T02:05:27;20.55;;;4.25;;
21046;SDS011;10682;50.874;3.656;2023-07-13T02:07:54;23.55;;;4.75;;
21046;SDS011;10682;50.874;3.656;2023-07-13T02:10:21;26.23;;;5.05;;
21046;SDS011;10682;50.874;3.656;2023-07-13T02:12:49;23.00;;;5.13;;
21046;SDS011;10682;50.874;3.656;2023-07-13T02:15:17;23.35;;;4.78;;
21046;SDS011;10682;50.874;3.656;2023-07-13T02:17:45;20.55;;;4.97;;
21046;SDS011;10682;50.874;3.656;2023-07-13T02:20:12;20.45;;;4.47;;
21046;SDS011;10682;50.874;3.656;2023-07-13T02:22:39;21.77;;;4.28;;
21046;SDS011;10682;50.874;3.656;2023-07-13T02:25:07;22.48;;;4.05;;
21046;SDS011;10682;50.874;3.656;2023-07-13T02:27:34;19.77;;;3.55;;
21046;SDS011;10682;50.874;3.656;2023-07-13T02:30:01;19.60;;;4.15;;
21046;SDS011;10682;50.874;3.656;2023-07-13T02:32:29;19.25;;;3.90;;
21046;SDS011;10682;50.874;3.656;2023-07-13T02:34:56;21.98;;;3.95;;
21046;SDS011;10682;50.874;3.656;2023-07-13T02:37:24;25.00;;;4.15;;
21046;SDS011;10682;50.874;3.656;2023-07-13T02:39:51;18.05;;;3.80;;
21046;SDS011;10682;50.874;3.656;2023-07-13T02:42:18;24.15;;;3.92;;
21046;SDS011;10682;50.874;3.656;2023-07-13T02:44:45;15.45;;;3.97;;
21046;SDS011;10682;50.874;3.656;2023-07-13T02:47:12;19.88;;;4.20;;
21046;SDS011;10682;50.874;3.656;2023-07-13T02:49:41;21.83;;;4.15;;
21046;SDS011;10682;50.874;3.656;2023-07-13T02:52:08;25.75;;;4.72;;
21046;SDS011;10682;50.874;3.656;2023-07-13T02:54:35;18.45;;;3.90;;
21046;SDS011;10682;50.874;3.656;2023-07-13T02:57:03;19.13;;;3.65;;
21046;SDS011;10682;50.874;3.656;2023-07-13T02:59:30;22.60;;;3.97;;
21046;SDS011;10682;50.874;3.656;2023-07-13T03:01:57;17.95;;;3.97;;
21046;SDS011;10682;50.874;3.656;2023-07-13T03:04:24;23.90;;;4.43;;
21046;SDS011;10682;50.874;3.656;2023-07-13T03:06:51;17.90;;;3.80;;
21046;SDS011;10682;50.874;3.656;2023-07-13T03:09:18;17.77;;;3.53;;
21046;SDS011;10682;50.874;3.656;2023-07-13T03:11:46;22.45;;;4.22;;
21046;SDS011;10682;50.874;3.656;2023-07-13T03:14:13;18.08;;;4.22;;
21046;SDS011;10682;50.874;3.656;2023-07-13T03:16:40;17.88;;;4.32;;
21046;SDS011;10682;50.874;3.656;2023-07-13T03:19:07;24.02;;;3.78;;
21046;SDS011;10682;50.874;3.656;2023-07-13T03:21:34;25.03;;;4.10;;
21046;SDS011;10682;50.874;3.656;2023-07-13T03:24:01;16.13;;;4.07;;
21046;SDS011;10682;50.874;3.656;2023-07-13T03:26:28;17.92;;;3.47;;
21046;SDS011;10682;50.874;3.656;2023-07-13T03:28:55;21.13;;;4.00;;
21046;SDS011;10682;50.874;3.656;2023-07-13T03:31:24;18.17;;;3.70;;
21046;SDS011;10682;50.874;3.656;2023-07-13T03:33:55;19.08;;;3.88;;
21046;SDS011;10682;50.874;3.656;2023-07-13T03:36:24;26.20;;;4.43;;
21046;SDS011;10682;50.874;3.656;2023-07-13T03:38:57;19.50;;;4.47;;
21046;SDS011;10682;50.874;3.656;2023-07-13T03:41:27;15.25;;;3.78;;
21046;SDS011;10682;50.874;3.656;2023-07-13T03:43:54;15.38;;;3.15;;
21046;SDS011;10682;50.874;3.656;2023-07-13T03:46:21;22.77;;;4.47;;
21046;SDS011;10682;50.874;3.656;2023-07-13T03:48:48;18.10;;;4.93;;
21046;SDS011;10682;50.874;3.656;2023-07-13T03:51:16;22.48;;;4.22;;
21046;SDS011;10682;50.874;3.656;2023-07-13T03:53:44;17.48;;;3.60;;
21046;SDS011;10682;50.874;3.656;2023-07-13T03:56:13;10.93;;;3.17;;
21046;SDS011;10682;50.874;3.656;2023-07-13T03:58:42;23.73;;;4.20;;
21046;SDS011;10682;50.874;3.656;2023-07-13T04:01:12;20.55;;;4.05;;
21046;SDS011;10682;50.874;3.656;2023-07-13T04:03:40;19.35;;;4.07;;
21046;SDS011;10682;50.874;3.656;2023-07-13T04:06:12;21.02;;;4.00;;
21046;SDS011;10682;50.874;3.656;2023-07-13T04:08:52;16.90;;;4.05;;
21046;SDS011;10682;50.874;3.656;2023-07-13T04:11:23;23.75;;;4.13;;
21046;SDS011;10682;50.874;3.656;2023-07-13T04:13:53;24.80;;;5.00;;
21046;SDS011;10682;50.874;3.656;2023-07-13T04:16:20;18.57;;;4.13;;
21046;SDS011;10682;50.874;3.656;2023-07-13T04:18:48;23.35;;;4.22;;
21046;SDS011;10682;50.874;3.656;2023-07-13T04:21:16;20.95;;;4.00;;
21046;SDS011;10682;50.874;3.656;2023-07-13T04:23:43;22.20;;;4.28;;
21046;SDS011;10682;50.874;3.656;2023-07-13T04:26:10;22.60;;;4.25;;
21046;SDS011;10682;50.874;3.656;2023-07-13T04:28:38;19.42;;;4.05;;
21046;SDS011;10682;50.874;3.656;2023-07-13T04:31:05;20.35;;;4.25;;
21046;SDS011;10682;50.874;3.656;2023-07-13T04:33:32;20.33;;;4.20;;
21046;SDS011;10682;50.874;3.656;2023-07-13T04:36:00;18.10;;;4.70;;
21046;SDS011;10682;50.874;3.656;2023-07-13T04:38:28;18.27;;;4.13;;
21046;SDS011;10682;50.874;3.656;2023-07-13T04:41:02;17.17;;;3.38;;
21046;SDS011;10682;50.874;3.656;2023-07-13T04:43:32;15.82;;;3.63;;
21046;SDS011;10682;50.874;3.656;2023-07-13T04:46:04;15.13;;;3.97;;
21046;SDS011;10682;50.874;3.656;2023-07-13T04:48:44;25.35;;;4.05;;
21046;SDS011;10682;50.874;3.656;2023-07-13T04:51:11;15.73;;;3.75;;
21046;SDS011;10682;50.874;3.656;2023-07-13T04:53:38;15.77;;;3.78;;
21046;SDS011;10682;50.874;3.656;2023-07-13T04:56:05;20.17;;;4.32;;
21046;SDS011;10682;50.874;3.656;2023-07-13T04:58:33;18.45;;;3.92;;
21046;SDS011;10682;50.874;3.656;2023-07-13T05:01:02;27.02;;;4.40;;
21046;SDS011;10682;50.874;3.656;2023-07-13T05:03:30;23.50;;;4.35;;
21046;SDS011;10682;50.874;3.656;2023-07-13T05:06:02;19.23;;;4.88;;
21046;SDS011;10682;50.874;3.656;2023-07-13T05:08:32;21.15;;;4.03;;
21046;SDS011;10682;50.874;3.656;2023-07-13T05:11:00;23.67;;;4.25;;
21046;SDS011;10682;50.874;3.656;2023-07-13T05:13:30;22.05;;;4.00;;
21046;SDS011;10682;50.874;3.656;2023-07-13T05:16:06;23.02;;;4.43;;
21046;SDS011;10682;50.874;3.656;2023-07-13T05:18:35;22.67;;;4.07;;
21046;SDS011;10682;50.874;3.656;2023-07-13T05:21:06;24.10;;;4.53;;
21046;SDS011;10682;50.874;3.656;2023-07-13T05:23:36;15.48;;;3.47;;
21046;SDS011;10682;50.874;3.656;2023-07-13T05:26:03;18.60;;;4.35;;
21046;SDS011;10682;50.874;3.656;2023-07-13T05:28:35;15.27;;;3.30;;
21046;SDS011;10682;50.874;3.656;2023-07-13T05:31:03;22.55;;;4.35;;
21046;SDS011;10682;50.874;3.656;2023-07-13T05:33:31;26.65;;;4.43;;
21046;SDS011;10682;50.874;3.656;2023-07-13T05:35:58;20.60;;;3.80;;
21046;SDS011;10682;50.874;3.656;2023-07-13T05:38:27;28.08;;;4.38;;
21046;SDS011;10682;50.874;3.656;2023-07-13T05:40:55;18.35;;;3.47;;
21046;SDS011;10682;50.874;3.656;2023-07-13T05:43:22;27.10;;;3.90;;
21046;SDS011;10682;50.874;3.656;2023-07-13T05:45:53;20.50;;;4.38;;
21046;SDS011;10682;50.874;3.656;2023-07-13T05:48:23;27.02;;;4.20;;
21046;SDS011;10682;50.874;3.656;2023-07-13T05:50:50;17.85;;;3.78;;
21046;SDS011;10682;50.874;3.656;2023-07-13T05:53:17;24.85;;;4.63;;
21046;SDS011;10682;50.874;3.656;2023-07-13T05:55:45;16.52;;;3.92;;
21046;SDS011;10682;50.874;3.656;2023-07-13T05:58:17;21.17;;;4.03;;
21046;SDS011;10682;50.874;3.656;2023-07-13T06:00:45;20.55;;;4.25;;
21046;SDS011;10682;50.874;3.656;2023-07-13T06:03:13;19.30;;;3.90;;
21046;SDS011;10682;50.874;3.656;2023-07-13T06:05:41;18.77;;;4.47;;
21046;SDS011;10682;50.874;3.656;2023-07-13T06:08:08;21.95;;;4.03;;
21046;SDS011;10682;50.874;3.656;2023-07-13T06:10:35;20.48;;;4.07;;
21046;SDS011;10682;50.874;3.656;2023-07-13T06:13:03;17.48;;;4.28;;
21046;SDS011;10682;50.874;3.656;2023-07-13T06:15:30;21.08;;;4.55;;
21046;SDS011;10682;50.874;3.656;2023-07-13T06:17:57;17.58;;;4.20;;
21046;SDS011;10682;50.874;3.656;2023-07-13T06:20:24;19.02;;;4.78;;
21046;SDS011;10682;50.874;3.656;2023-07-13T06:22:51;27.23;;;4.28;;
21046;SDS011;10682;50.874;3.656;2023-07-13T06:25:18;17.55;;;4.07;;
21046;SDS011;10682;50.874;3.656;2023-07-13T06:27:45;21.48;;;4.07;;
21046;SDS011;10682;50.874;3.656;2023-07-13T06:30:13;17.70;;;4.05;;
21046;SDS011;10682;50.874;3.656;2023-07-13T06:32:40;20.45;;;4.13;;
21046;SDS011;10682;50.874;3.656;2023-07-13T06:35:07;19.23;;;4.03;;
21046;SDS011;10682;50.874;3.656;2023-07-13T06:37:34;19.35;;;3.92;;
21046;SDS011;10682;50.874;3.656;2023-07-13T06:40:01;19.58;;;4.00;;
21046;SDS011;10682;50.874;3.656;2023-07-13T06:42:30;18.35;;;4.07;;
21046;SDS011;10682;50.874;3.656;2023-07-13T06:44:57;20.80;;;4.03;;
21046;SDS011;10682;50.874;3.656;2023-07-13T06:47:24;18.27;;;4.03;;
21046;SDS011;10682;50.874;3.656;2023-07-13T06:49:51;15.95;;;3.65;;
21046;SDS011;10682;50.874;3.656;2023-07-13T06:52:18;20.98;;;4.50;;
21046;SDS011;10682;50.874;3.656;2023-07-13T06:54:45;18.50;;;4.22;;
21046;SDS011;10682;50.874;3.656;2023-07-13T06:57:12;16.95;;;3.88;;
21046;SDS011;10682;50.874;3.656;2023-07-13T06:59:39;20.35;;;3.90;;
21046;SDS011;10682;50.874;3.656;2023-07-13T07:02:08;18.95;;;4.18;;
21046;SDS011;10682;50.874;3.656;2023-07-13T07:04:36;20.27;;;4.53;;
21046;SDS011;10682;50.874;3.656;2023-07-13T07:07:03;22.58;;;4.53;;
21046;SDS011;10682;50.874;3.656;2023-07-13T07:09:30;23.02;;;4.22;;
21046;SDS011;10682;50.874;3.656;2023-07-13T07:11:58;17.10;;;4.15;;
21046;SDS011;10682;50.874;3.656;2023-07-13T07:14:29;18.77;;;3.97;;
21046;SDS011;10682;50.874;3.656;2023-07-13T07:16:57;21.48;;;3.65;;
21046;SDS011;10682;50.874;3.656;2023-07-13T07:19:25;18.40;;;3.63;;
21046;SDS011;10682;50.874;3.656;2023-07-13T07:21:55;20.08;;;4.38;;
21046;SDS011;10682;50.874;3.656;2023-07-13T07:24:22;21.27;;;4.15;;
21046;SDS011;10682;50.874;3.656;2023-07-13T07:26:49;20.00;;;4.10;;
21046;SDS011;10682;50.874;3.656;2023-07-13T07:29:19;17.40;;;3.85;;
21046;SDS011;10682;50.874;3.656;2023-07-13T07:31:51;19.48;;;3.58;;
21046;SDS011;10682;50.874;3.656;2023-07-13T07:34:22;19.60;;;4.20;;
21046;SDS011;10682;50.874;3.656;2023-07-13T07:36:49;22.50;;;3.90;;
21046;SDS011;10682;50.874;3.656;2023-07-13T07:39:19;21.55;;;3.95;;
21046;SDS011;10682;50.874;3.656;2023-07-13T07:41:46;20.55;;;4.40;;
21046;SDS011;10682;50.874;3.656;2023-07-13T07:44:16;20.88;;;4.70;;
21046;SDS011;10682;50.874;3.656;2023-07-13T07:46:43;14.13;;;3.95;;
21046;SDS011;10682;50.874;3.656;2023-07-13T07:49:11;17.85;;;3.50;;
21046;SDS011;10682;50.874;3.656;2023-07-13T07:51:38;18.98;;;4.00;;
21046;SDS011;10682;50.874;3.656;2023-07-13T07:54:05;17.63;;;4.10;;
21046;SDS011;10682;50.874;3.656;2023-07-13T07:56:32;16.25;;;3.92;;
21046;SDS011;10682;50.874;3.656;2023-07-13T07:59:02;16.40;;;3.65;;
21046;SDS011;10682;50.874;3.656;2023-07-13T08:01:32;17.50;;;4.00;;
21046;SDS011;10682;50.874;3.656;2023-07-13T08:04:02;17.55;;;3.78;;
21046;SDS011;10682;50.874;3.656;2023-07-13T08:06:33;21.15;;;4.30;;
21046;SDS011;10682;50.874;3.656;2023-07-13T08:09:03;18.00;;;3.92;;
21046;SDS011;10682;50.874;3.656;2023-07-13T08:11:31;14.90;;;3.78;;
21046;SDS011;10682;50.874;3.656;2023-07-13T08:14:00;27.15;;;4.32;;
21046;SDS011;10682;50.874;3.656;2023-07-13T08:16:28;22.17;;;3.90;;
21046;SDS011;10682;50.874;3.656;2023-07-13T08:18:55;17.00;;;3.22;;
21046;SDS011;10682;50.874;3.656;2023-07-13T08:21:22;16.70;;;3.30;;
21046;SDS011;10682;50.874;3.656;2023-07-13T08:23:49;15.35;;;3.80;;
21046;SDS011;10682;50.874;3.656;2023-07-13T08:26:16;18.42;;;3.88;;
21046;SDS011;10682;50.874;3.656;2023-07-13T08:28:43;13.43;;;3.35;;
21046;SDS011;10682;50.874;3.656;2023-07-13T08:31:10;13.68;;;3.38;;
21046;SDS011;10682;50.874;3.656;2023-07-13T08:33:38;15.13;;;3.20;;
21046;SDS011;10682;50.874;3.656;2023-07-13T08:36:07;18.52;;;3.40;;
21046;SDS011;10682;50.874;3.656;2023-07-13T08:38:34;16.27;;;2.90;;
21046;SDS011;10682;50.874;3.656;2023-07-13T08:41:03;11.68;;;2.80;;
21046;SDS011;10682;50.874;3.656;2023-07-13T08:43:39;11.93;;;3.05;;
21046;SDS011;10682;50.874;3.656;2023-07-13T08:46:44;14.75;;;2.80;;
21046;SDS011;10682;50.874;3.656;2023-07-13T08:49:14;9.38;;;2.35;;
21046;SDS011;10682;50.874;3.656;2023-07-13T08:51:49;18.38;;;2.78;;
21046;SDS011;10682;50.874;3.656;2023-07-13T08:57:16;10.73;;;2.53;;
21046;SDS011;10682;50.874;3.656;2023-07-13T08:59:46;10.00;;;2.50;;
21046;SDS011;10682;50.874;3.656;2023-07-13T09:07:55;11.98;;;2.47;;
21046;SDS011;10682;50.874;3.656;2023-07-13T09:15:50;10.27;;;2.90;;
21046;SDS011;10682;50.874;3.656;2023-07-13T09:18:41;8.27;;;2.05;;
21046;SDS011;10682;50.874;3.656;2023-07-13T09:23:53;8.30;;;2.15;;
21046;SDS011;10682;50.874;3.656;2023-07-13T09:26:25;7.65;;;1.92;;
21046;SDS011;10682;50.874;3.656;2023-07-13T09:29:06;10.90;;;2.70;;
21046;SDS011;10682;50.874;3.656;2023-07-13T09:31:46;7.70;;;2.40;;
21046;SDS011;10682;50.874;3.656;2023-07-13T09:34:19;11.80;;;2.03;;
21046;SDS011;10682;50.874;3.656;2023-07-13T09:36:47;10.07;;;2.25;;
21046;SDS011;10682;50.874;3.656;2023-07-13T09:39:18;11.05;;;2.28;;
21046;SDS011;10682;50.874;3.656;2023-07-13T09:41:55;13.35;;;2.00;;
21046;SDS011;10682;50.874;3.656;2023-07-13T09:44:55;10.48;;;2.35;;
21046;SDS011;10682;50.874;3.656;2023-07-13T09:47:29;13.20;;;2.08;;
21046;SDS011;10682;50.874;3.656;2023-07-13T09:50:10;9.02;;;2.25;;
21046;SDS011;10682;50.874;3.656;2023-07-13T09:52:44;9.38;;;2.17;;
21046;SDS011;10682;50.874;3.656;2023-07-13T09:55:27;8.18;;;2.10;;
21046;SDS011;10682;50.874;3.656;2023-07-13T09:57:56;10.63;;;2.35;;
21046;SDS011;10682;50.874;3.656;2023-07-13T10:00:25;11.73;;;2.33;;
21046;SDS011;10682;50.874;3.656;2023-07-13T10:03:04;9.90;;;2.38;;
21046;SDS011;10682;50.874;3.656;2023-07-13T10:05:44;9.38;;;2.30;;
21046;SDS011;10682;50.874;3.656;2023-07-13T10:08:27;11.85;;;2.30;;
21046;SDS011;10682;50.874;3.656;2023-07-13T10:11:00;10.93;;;2.42;;
21046;SDS011;10682;50.874;3.656;2023-07-13T10:13:53;7.07;;;2.08;;
21046;SDS011;10682;50.874;3.656;2023-07-13T10:16:23;10.35;;;2.47;;
21046;SDS011;10682;50.874;3.656;2023-07-13T10:21:39;7.15;;;2.33;;
21046;SDS011;10682;50.874;3.656;2023-07-13T10:24:29;5.55;;;1.80;;
21046;SDS011;10682;50.874;3.656;2023-07-13T10:27:10;7.38;;;2.00;;
21046;SDS011;10682;50.874;3.656;2023-07-13T10:29:46;9.23;;;1.70;;
21046;SDS011;10682;50.874;3.656;2023-07-13T10:32:52;7.07;;;2.00;;
21046;SDS011;10682;50.874;3.656;2023-07-13T10:35:20;8.85;;;1.92;;
21046;SDS011;10682;50.874;3.656;2023-07-13T10:38:02;10.23;;;1.90;;
21046;SDS011;10682;50.874;3.656;2023-07-13T10:43:13;13.25;;;1.90;;
21046;SDS011;10682;50.874;3.656;2023-07-13T10:46:03;6.43;;;1.70;;
21046;SDS011;10682;50.874;3.656;2023-07-13T10:48:36;5.80;;;1.70;;
21046;SDS011;10682;50.874;3.656;2023-07-13T10:51:04;9.13;;;1.85;;
21046;SDS011;10682;50.874;3.656;2023-07-13T10:53:34;9.75;;;2.08;;
21046;SDS011;10682;50.874;3.656;2023-07-13T10:56:04;8.23;;;1.70;;
21046;SDS011;10682;50.874;3.656;2023-07-13T11:01:55;3.67;;;1.30;;
21046;SDS011;10682;50.874;3.656;2023-07-13T11:04:41;7.35;;;1.60;;
21046;SDS011;10682;50.874;3.656;2023-07-13T11:07:24;4.05;;;1.40;;
21046;SDS011;10682;50.874;3.656;2023-07-13T11:09:59;5.10;;;1.80;;
21046;SDS011;10682;50.874;3.656;2023-07-13T11:15:30;5.55;;;1.88;;
21046;SDS011;10682;50.874;3.656;2023-07-13T11:18:19;4.28;;;1.60;;
21046;SDS011;10682;50.874;3.656;2023-07-13T11:20:51;5.00;;;1.92;;
21046;SDS011;10682;50.874;3.656;2023-07-13T11:24:01;5.38;;;1.77;;
21046;SDS011;10682;50.874;3.656;2023-07-13T11:32:21;3.83;;;1.83;;
21046;SDS011;10682;50.874;3.656;2023-07-13T11:34:53;4.55;;;1.63;;
21046;SDS011;10682;50.874;3.656;2023-07-13T11:37:21;5.68;;;1.77;;
21046;SDS011;10682;50.874;3.656;2023-07-13T11:39:50;4.25;;;1.67;;
21046;SDS011;10682;50.874;3.656;2023-07-13T11:42:19;3.88;;;1.50;;
21046;SDS011;10682;50.874;3.656;2023-07-13T11:44:48;2.58;;;1.50;;
21046;SDS011;10682;50.874;3.656;2023-07-13T11:47:39;5.32;;;1.40;;
21046;SDS011;10682;50.874;3.656;2023-07-13T11:50:16;7.25;;;1.65;;
21046;SDS011;10682;50.874;3.656;2023-07-13T11:52:49;6.70;;;1.63;;
21046;SDS011;10682;50.874;3.656;2023-07-13T11:55:20;8.93;;;2.03;;
21046;SDS011;10682;50.874;3.656;2023-07-13T11:57:51;4.75;;;1.60;;
21046;SDS011;10682;50.874;3.656;2023-07-13T12:00:29;6.60;;;1.73;;
21046;SDS011;10682;50.874;3.656;2023-07-13T12:03:00;5.03;;;1.77;;
21046;SDS011;10682;50.874;3.656;2023-07-13T12:05:31;5.20;;;1.73;;
21046;SDS011;10682;50.874;3.656;2023-07-13T12:07:58;4.63;;;1.65;;
21046;SDS011;10682;50.874;3.656;2023-07-13T12:10:29;6.65;;;1.90;;
21046;SDS011;10682;50.874;3.656;2023-07-13T12:13:08;10.13;;;1.83;;
21046;SDS011;10682;50.874;3.656;2023-07-13T12:15:41;9.40;;;1.90;;
21046;SDS011;10682;50.874;3.656;2023-07-13T12:18:13;6.15;;;1.73;;
21046;SDS011;10682;50.874;3.656;2023-07-13T12:20:50;8.02;;;2.03;;
21046;SDS011;10682;50.874;3.656;2023-07-13T12:23:22;8.77;;;2.17;;
21046;SDS011;10682;50.874;3.656;2023-07-13T12:25:51;6.65;;;2.00;;
21046;SDS011;10682;50.874;3.656;2023-07-13T12:28:20;8.07;;;2.05;;
21046;SDS011;10682;50.874;3.656;2023-07-13T12:30:48;5.75;;;1.88;;
21046;SDS011;10682;50.874;3.656;2023-07-13T12:33:16;8.25;;;1.92;;
21046;SDS011;10682;50.874;3.656;2023-07-13T12:35:47;10.45;;;1.73;;
21046;SDS011;10682;50.874;3.656;2023-07-13T12:38:19;10.30;;;1.90;;
21046;SDS011;10682;50.874;3.656;2023-07-13T12:40:51;6.22;;;1.80;;
21046;SDS011;10682;50.874;3.656;2023-07-13T12:43:20;6.15;;;1.50;;
21046;SDS011;10682;50.874;3.656;2023-07-13T12:45:56;7.75;;;1.80;;
21046;SDS011;10682;50.874;3.656;2023-07-13T12:48:24;5.82;;;1.85;;
21046;SDS011;10682;50.874;3.656;2023-07-13T12:51:08;5.88;;;1.80;;
21046;SDS011;10682;50.874;3.656;2023-07-13T12:53:42;4.55;;;1.50;;
21046;SDS011;10682;50.874;3.656;2023-07-13T12:56:23;6.07;;;1.67;;
21046;SDS011;10682;50.874;3.656;2023-07-13T12:58:56;4.22;;;1.50;;
21046;SDS011;10682;50.874;3.656;2023-07-13T13:01:28;4.05;;;1.58;;
21046;SDS011;10682;50.874;3.656;2023-07-13T13:04:00;7.95;;;1.63;;
21046;SDS011;10682;50.874;3.656;2023-07-13T13:06:39;3.10;;;1.70;;
21046;SDS011;10682;50.874;3.656;2023-07-13T13:09:12;4.40;;;1.48;;
21046;SDS011;10682;50.874;3.656;2023-07-13T13:11:42;6.40;;;1.52;;
21046;SDS011;10682;50.874;3.656;2023-07-13T13:14:09;4.47;;;1.52;;
21046;SDS011;10682;50.874;3.656;2023-07-13T13:16:47;6.47;;;1.98;;
21046;SDS011;10682;50.874;3.656;2023-07-13T13:19:18;4.75;;;1.70;;
21046;SDS011;10682;50.874;3.656;2023-07-13T13:21:50;6.63;;;1.70;;
21046;SDS011;10682;50.874;3.656;2023-07-13T13:24:20;4.85;;;1.58;;
21046;SDS011;10682;50.874;3.656;2023-07-13T13:26:51;3.38;;;1.60;;
21046;SDS011;10682;50.874;3.656;2023-07-13T13:29:21;3.85;;;1.50;;
21046;SDS011;10682;50.874;3.656;2023-07-13T13:31:53;4.13;;;1.48;;
21046;SDS011;10682;50.874;3.656;2023-07-13T13:34:22;4.00;;;1.65;;
21046;SDS011;10682;50.874;3.656;2023-07-13T13:36:51;4.70;;;1.70;;
21046;SDS011;10682;50.874;3.656;2023-07-13T13:39:25;4.28;;;1.40;;
21046;SDS011;10682;50.874;3.656;2023-07-13T13:42:03;6.57;;;1.80;;
21046;SDS011;10682;50.874;3.656;2023-07-13T13:44:31;4.28;;;1.40;;
21046;SDS011;10682;50.874;3.656;2023-07-13T13:46:58;3.85;;;1.63;;
21046;SDS011;10682;50.874;3.656;2023-07-13T13:49:26;7.72;;;1.70;;
21046;SDS011;10682;50.874;3.656;2023-07-13T13:51:54;4.00;;;1.70;;
21046;SDS011;10682;50.874;3.656;2023-07-13T13:54:23;4.00;;;1.60;;
21046;SDS011;10682;50.874;3.656;2023-07-13T13:56:52;5.65;;;1.83;;
21046;SDS011;10682;50.874;3.656;2023-07-13T13:59:19;6.53;;;1.65;;
21046;SDS011;10682;50.874;3.656;2023-07-13T14:01:47;4.30;;;1.52;;
21046;SDS011;10682;50.874;3.656;2023-07-13T14:04:19;4.47;;;1.40;;
21046;SDS011;10682;50.874;3.656;2023-07-13T14:06:48;3.97;;;1.33;;
21046;SDS011;10682;50.874;3.656;2023-07-13T14:09:16;5.82;;;1.75;;
21046;SDS011;10682;50.874;3.656;2023-07-13T14:11:46;3.70;;;1.45;;
21046;SDS011;10682;50.874;3.656;2023-07-13T14:14:17;5.32;;;1.80;;
21046;SDS011;10682;50.874;3.656;2023-07-13T14:16:49;3.70;;;1.50;;
21046;SDS011;10682;50.874;3.656;2023-07-13T14:19:21;2.88;;;1.50;;
21046;SDS011;10682;50.874;3.656;2023-07-13T14:21:49;4.32;;;1.50;;
21046;SDS011;10682;50.874;3.656;2023-07-13T14:24:19;5.47;;;1.95;;
21046;SDS011;10682;50.874;3.656;2023-07-13T14:26:47;3.15;;;1.50;;
21046;SDS011;10682;50.874;3.656;2023-07-13T14:29:15;3.22;;;1.70;;
21046;SDS011;10682;50.874;3.656;2023-07-13T14:31:50;4.18;;;1.60;;
21046;SDS011;10682;50.874;3.656;2023-07-13T14:34:17;6.32;;;1.55;;
21046;SDS011;10682;50.874;3.656;2023-07-13T14:36:45;4.85;;;1.80;;
21046;SDS011;10682;50.874;3.656;2023-07-13T14:39:17;2.85;;;1.58;;
21046;SDS011;10682;50.874;3.656;2023-07-13T14:41:53;5.97;;;1.63;;
21046;SDS011;10682;50.874;3.656;2023-07-13T14:44:24;5.75;;;1.70;;
21046;SDS011;10682;50.874;3.656;2023-07-13T14:46:58;5.82;;;1.77;;
21046;SDS011;10682;50.874;3.656;2023-07-13T14:49:34;4.03;;;1.60;;
21046;SDS011;10682;50.874;3.656;2023-07-13T14:52:17;3.90;;;1.55;;
21046;SDS011;10682;50.874;3.656;2023-07-13T14:54:47;4.03;;;1.52;;
21046;SDS011;10682;50.874;3.656;2023-07-13T14:57:15;3.78;;;1.48;;
21046;SDS011;10682;50.874;3.656;2023-07-13T14:59:47;4.78;;;1.70;;
21046;SDS011;10682;50.874;3.656;2023-07-13T15:02:24;3.22;;;1.45;;
21046;SDS011;10682;50.874;3.656;2023-07-13T15:04:59;4.00;;;1.60;;
21046;SDS011;10682;50.874;3.656;2023-07-13T15:07:27;3.53;;;1.33;;
21046;SDS011;10682;50.874;3.656;2023-07-13T15:09:54;3.40;;;1.60;;
21046;SDS011;10682;50.874;3.656;2023-07-13T15:12:21;3.13;;;1.60;;
21046;SDS011;10682;50.874;3.656;2023-07-13T15:14:48;4.75;;;1.52;;
21046;SDS011;10682;50.874;3.656;2023-07-13T15:17:31;7.30;;;1.73;;
21046;SDS011;10682;50.874;3.656;2023-07-13T15:20:12;6.82;;;1.45;;
21046;SDS011;10682;50.874;3.656;2023-07-13T15:22:46;6.05;;;1.85;;
21046;SDS011;10682;50.874;3.656;2023-07-13T15:25:16;5.20;;;1.60;;
21046;SDS011;10682;50.874;3.656;2023-07-13T15:27:46;4.90;;;1.80;;
21046;SDS011;10682;50.874;3.656;2023-07-13T15:30:14;2.90;;;1.50;;
21046;SDS011;10682;50.874;3.656;2023-07-13T15:32:42;5.15;;;1.60;;
21046;SDS011;10682;50.874;3.656;2023-07-13T15:35:28;6.82;;;1.50;;
21046;SDS011;10682;50.874;3.656;2023-07-13T15:37:55;5.50;;;1.70;;